La Crosse Municipal Airport
KLSE : now visible

Airfield :











YOU CAN JOIN US ON...

 
LOGIN :

Register | Disclaimer

   EN    FR    IT 

 









Legend :    VFR   Marginal VFR   IFR   Intensive IFR   Very Intensive IFR
Visi :
Ceiling :
>= 8 km
>= 3000ft
5 to 8 km
1000 to 3000 ft
1500m to 5 km
500 to 1000 ft
800 to 1500m
200 to 500 ft
< 800m
< 200 ft
Symbols :   Thunderstorms  Fog  Heavy snow  Heavy precipitations  Wind > 20 kt






- Airport Elevation : 655 ft
- IATA code : LSE


KLSE - La Crosse Municipal

CURRENT METAR :
  • 040553Z AUTO 17007KT 10SM CLR 24/16 A3002 RMK AO2 SLP156 T02440156 10300 20239 403170161 50003 $

EXPIRED METARs :
  • 040453Z AUTO 16005KT 10SM CLR 24/16 A3003 RMK AO2 SLP157 T02390156 $
  • 040353Z AUTO 17006KT 10SM CLR 26/16 A3003 RMK AO2 SLP158 T02560156 $
  • 040253Z AUTO 16008KT 10SM CLR 26/16 A3002 RMK AO2 SLP154 T02610161 55005 $

TAF KLSE
Valid from the 04 at 06:00 until the 05 at 06:00 UTC


040525Z 0406/0506 16006KT P6SM SCT250
FM041600 18009KT 6SM -SHRA VCTS SCT025CB OVC040
TEMPO 0417/0421 BKN025
FM042100 17009KT P6SM SCT025 BKN050
KZMP FIR / North America



MET'MAP, your aeronautical weather chart ! - Copyright ORBIFLY December 2007 - Disclaimer

ORBIFLY MET'MAP TEAM :

Programming & Development : Alexandra Zaïnal
Original concept : Baudouin d'Aumeries
Technical & hardware support : Manuel Goepfert
Assistance : Marc-Olivier Méhu




SOURCES & CREDITS :

   NOAA       Earth
Advisory